sensor_id;sensor_type;location;lat;lon;timestamp;P1;durP1;ratioP1;P2;durP2;ratioP2
49384;SDS011;36795;45.028;38.968;2022-08-25T00:00:56;28.90;;;4.57;;
49384;SDS011;36795;45.028;38.968;2022-08-25T00:03:42;26.87;;;4.30;;
49384;SDS011;36795;45.028;38.968;2022-08-25T00:06:29;33.13;;;3.87;;
49384;SDS011;36795;45.028;38.968;2022-08-25T00:09:16;31.33;;;4.55;;
49384;SDS011;36795;45.028;38.968;2022-08-25T00:12:05;28.17;;;5.10;;
49384;SDS011;36795;45.028;38.968;2022-08-25T00:14:51;28.17;;;4.90;;
49384;SDS011;36795;45.028;38.968;2022-08-25T00:17:37;37.47;;;4.57;;
49384;SDS011;36795;45.028;38.968;2022-08-25T00:20:23;30.70;;;4.80;;
49384;SDS011;36795;45.028;38.968;2022-08-25T00:23:10;24.92;;;3.80;;
49384;SDS011;36795;45.028;38.968;2022-08-25T00:25:56;26.23;;;4.85;;
49384;SDS011;36795;45.028;38.968;2022-08-25T00:28:43;27.67;;;4.03;;
49384;SDS011;36795;45.028;38.968;2022-08-25T00:31:30;37.58;;;4.53;;
49384;SDS011;36795;45.028;38.968;2022-08-25T00:34:19;31.23;;;4.97;;
49384;SDS011;36795;45.028;38.968;2022-08-25T00:37:12;31.67;;;4.85;;
49384;SDS011;36795;45.028;38.968;2022-08-25T00:39:59;29.70;;;4.32;;
49384;SDS011;36795;45.028;38.968;2022-08-25T00:42:45;31.83;;;5.05;;
49384;SDS011;36795;45.028;38.968;2022-08-25T00:45:32;32.90;;;4.45;;
49384;SDS011;36795;45.028;38.968;2022-08-25T00:48:19;30.45;;;5.05;;
49384;SDS011;36795;45.028;38.968;2022-08-25T00:51:05;31.50;;;5.25;;
49384;SDS011;36795;45.028;38.968;2022-08-25T00:53:54;30.73;;;4.12;;
49384;SDS011;36795;45.028;38.968;2022-08-25T00:56:40;30.73;;;4.70;;
49384;SDS011;36795;45.028;38.968;2022-08-25T00:59:27;31.77;;;4.72;;
49384;SDS011;36795;45.028;38.968;2022-08-25T01:02:14;32.47;;;4.62;;
49384;SDS011;36795;45.028;38.968;2022-08-25T01:05:03;29.50;;;4.78;;
49384;SDS011;36795;45.028;38.968;2022-08-25T01:07:50;25.25;;;3.28;;
49384;SDS011;36795;45.028;38.968;2022-08-25T01:10:37;24.37;;;3.85;;
49384;SDS011;36795;45.028;38.968;2022-08-25T01:13:29;22.55;;;4.43;;
49384;SDS011;36795;45.028;38.968;2022-08-25T01:16:19;24.83;;;4.12;;
49384;SDS011;36795;45.028;38.968;2022-08-25T01:19:06;29.45;;;3.62;;
49384;SDS011;36795;45.028;38.968;2022-08-25T01:21:53;31.08;;;4.07;;
49384;SDS011;36795;45.028;38.968;2022-08-25T01:24:41;20.73;;;3.10;;
49384;SDS011;36795;45.028;38.968;2022-08-25T01:27:35;26.62;;;3.87;;
49384;SDS011;36795;45.028;38.968;2022-08-25T01:30:21;21.95;;;3.12;;
49384;SDS011;36795;45.028;38.968;2022-08-25T01:33:09;24.92;;;3.87;;
49384;SDS011;36795;45.028;38.968;2022-08-25T01:35:56;27.25;;;3.92;;
49384;SDS011;36795;45.028;38.968;2022-08-25T01:38:42;21.35;;;3.50;;
49384;SDS011;36795;45.028;38.968;2022-08-25T01:44:15;19.10;;;3.30;;
49384;SDS011;36795;45.028;38.968;2022-08-25T01:47:02;19.30;;;2.67;;
49384;SDS011;36795;45.028;38.968;2022-08-25T01:49:49;20.77;;;3.75;;
49384;SDS011;36795;45.028;38.968;2022-08-25T01:52:37;18.35;;;3.00;;
49384;SDS011;36795;45.028;38.968;2022-08-25T01:55:31;23.77;;;3.70;;
49384;SDS011;36795;45.028;38.968;2022-08-25T01:58:36;22.42;;;3.67;;
49384;SDS011;36795;45.028;38.968;2022-08-25T02:01:24;20.92;;;3.70;;
49384;SDS011;36795;45.028;38.968;2022-08-25T02:04:10;18.98;;;3.37;;
49384;SDS011;36795;45.028;38.968;2022-08-25T02:06:57;21.90;;;3.58;;
49384;SDS011;36795;45.028;38.968;2022-08-25T02:09:44;22.08;;;3.40;;
49384;SDS011;36795;45.028;38.968;2022-08-25T02:12:31;21.45;;;3.62;;
49384;SDS011;36795;45.028;38.968;2022-08-25T02:15:18;17.75;;;3.08;;
49384;SDS011;36795;45.028;38.968;2022-08-25T02:18:04;30.75;;;6.60;;
49384;SDS011;36795;45.028;38.968;2022-08-25T02:20:51;21.08;;;3.45;;
49384;SDS011;36795;45.028;38.968;2022-08-25T02:23:38;22.52;;;3.20;;
49384;SDS011;36795;45.028;38.968;2022-08-25T02:26:26;21.27;;;3.15;;
49384;SDS011;36795;45.028;38.968;2022-08-25T02:29:12;23.45;;;3.90;;
49384;SDS011;36795;45.028;38.968;2022-08-25T02:31:59;25.42;;;4.43;;
49384;SDS011;36795;45.028;38.968;2022-08-25T02:34:46;21.25;;;3.95;;
49384;SDS011;36795;45.028;38.968;2022-08-25T02:37:33;19.58;;;3.45;;
49384;SDS011;36795;45.028;38.968;2022-08-25T02:40:19;23.33;;;3.72;;
49384;SDS011;36795;45.028;38.968;2022-08-25T02:43:06;23.52;;;3.62;;
49384;SDS011;36795;45.028;38.968;2022-08-25T02:45:53;26.92;;;3.60;;
49384;SDS011;36795;45.028;38.968;2022-08-25T02:48:44;18.62;;;3.97;;
49384;SDS011;36795;45.028;38.968;2022-08-25T02:51:31;24.65;;;3.55;;
49384;SDS011;36795;45.028;38.968;2022-08-25T02:54:18;26.25;;;6.90;;
49384;SDS011;36795;45.028;38.968;2022-08-25T02:57:04;18.62;;;3.90;;
49384;SDS011;36795;45.028;38.968;2022-08-25T02:59:51;18.35;;;3.20;;
49384;SDS011;36795;45.028;38.968;2022-08-25T03:02:38;20.98;;;3.92;;
49384;SDS011;36795;45.028;38.968;2022-08-25T03:05:25;22.85;;;3.67;;
49384;SDS011;36795;45.028;38.968;2022-08-25T03:08:11;25.58;;;3.42;;
49384;SDS011;36795;45.028;38.968;2022-08-25T03:10:58;23.10;;;3.25;;
49384;SDS011;36795;45.028;38.968;2022-08-25T03:13:44;23.15;;;3.30;;
49384;SDS011;36795;45.028;38.968;2022-08-25T03:16:30;27.58;;;3.92;;
49384;SDS011;36795;45.028;38.968;2022-08-25T03:19:17;24.40;;;3.20;;
49384;SDS011;36795;45.028;38.968;2022-08-25T03:22:03;21.85;;;3.65;;
49384;SDS011;36795;45.028;38.968;2022-08-25T03:24:49;21.02;;;3.20;;
49384;SDS011;36795;45.028;38.968;2022-08-25T03:27:35;24.80;;;3.67;;
49384;SDS011;36795;45.028;38.968;2022-08-25T03:30:21;24.75;;;3.42;;
49384;SDS011;36795;45.028;38.968;2022-08-25T03:33:07;26.50;;;4.93;;
49384;SDS011;36795;45.028;38.968;2022-08-25T03:35:53;18.90;;;3.33;;
49384;SDS011;36795;45.028;38.968;2022-08-25T03:38:40;24.25;;;3.90;;
49384;SDS011;36795;45.028;38.968;2022-08-25T03:41:26;25.23;;;4.15;;
49384;SDS011;36795;45.028;38.968;2022-08-25T03:44:15;21.83;;;3.75;;
49384;SDS011;36795;45.028;38.968;2022-08-25T03:47:02;23.98;;;3.50;;
49384;SDS011;36795;45.028;38.968;2022-08-25T03:49:48;22.62;;;3.40;;
49384;SDS011;36795;45.028;38.968;2022-08-25T03:52:35;21.27;;;3.45;;
49384;SDS011;36795;45.028;38.968;2022-08-25T03:55:23;27.80;;;4.32;;
49384;SDS011;36795;45.028;38.968;2022-08-25T03:58:10;18.33;;;4.10;;
49384;SDS011;36795;45.028;38.968;2022-08-25T04:00:56;20.05;;;2.97;;
49384;SDS011;36795;45.028;38.968;2022-08-25T04:03:44;21.25;;;3.90;;
49384;SDS011;36795;45.028;38.968;2022-08-25T04:06:31;23.17;;;3.62;;
49384;SDS011;36795;45.028;38.968;2022-08-25T04:09:17;27.62;;;4.03;;
49384;SDS011;36795;45.028;38.968;2022-08-25T04:12:03;20.48;;;3.80;;
49384;SDS011;36795;45.028;38.968;2022-08-25T04:14:50;22.25;;;3.80;;
49384;SDS011;36795;45.028;38.968;2022-08-25T04:17:37;18.10;;;3.00;;
49384;SDS011;36795;45.028;38.968;2022-08-25T04:20:24;18.70;;;3.03;;
49384;SDS011;36795;45.028;38.968;2022-08-25T04:23:10;18.52;;;3.40;;
49384;SDS011;36795;45.028;38.968;2022-08-25T04:25:57;22.90;;;4.15;;
49384;SDS011;36795;45.028;38.968;2022-08-25T04:28:43;20.95;;;3.47;;
49384;SDS011;36795;45.028;38.968;2022-08-25T04:31:30;20.90;;;4.12;;
49384;SDS011;36795;45.028;38.968;2022-08-25T04:34:17;22.85;;;3.22;;
49384;SDS011;36795;45.028;38.968;2022-08-25T04:37:06;18.17;;;3.50;;
49384;SDS011;36795;45.028;38.968;2022-08-25T04:39:52;21.45;;;3.45;;
49384;SDS011;36795;45.028;38.968;2022-08-25T04:42:53;18.83;;;3.55;;
49384;SDS011;36795;45.028;38.968;2022-08-25T04:45:39;21.70;;;3.30;;
49384;SDS011;36795;45.028;38.968;2022-08-25T04:48:26;24.08;;;3.17;;
49384;SDS011;36795;45.028;38.968;2022-08-25T04:51:12;20.58;;;3.08;;
49384;SDS011;36795;45.028;38.968;2022-08-25T04:54:01;19.05;;;3.40;;
49384;SDS011;36795;45.028;38.968;2022-08-25T04:56:51;25.85;;;3.25;;
49384;SDS011;36795;45.028;38.968;2022-08-25T04:59:37;22.48;;;3.28;;
49384;SDS011;36795;45.028;38.968;2022-08-25T05:02:24;18.37;;;3.40;;
49384;SDS011;36795;45.028;38.968;2022-08-25T05:05:10;28.08;;;3.33;;
49384;SDS011;36795;45.028;38.968;2022-08-25T05:07:56;21.10;;;3.28;;
49384;SDS011;36795;45.028;38.968;2022-08-25T05:10:44;21.00;;;3.22;;
49384;SDS011;36795;45.028;38.968;2022-08-25T05:13:30;21.80;;;3.50;;
49384;SDS011;36795;45.028;38.968;2022-08-25T05:16:18;28.62;;;3.95;;
49384;SDS011;36795;45.028;38.968;2022-08-25T05:19:05;20.05;;;2.92;;
49384;SDS011;36795;45.028;38.968;2022-08-25T05:21:52;26.33;;;3.30;;
49384;SDS011;36795;45.028;38.968;2022-08-25T05:24:38;18.00;;;3.35;;
49384;SDS011;36795;45.028;38.968;2022-08-25T05:27:25;20.15;;;3.20;;
49384;SDS011;36795;45.028;38.968;2022-08-25T05:30:11;22.60;;;3.60;;
49384;SDS011;36795;45.028;38.968;2022-08-25T05:32:57;16.27;;;3.00;;
49384;SDS011;36795;45.028;38.968;2022-08-25T05:35:43;29.02;;;6.15;;
49384;SDS011;36795;45.028;38.968;2022-08-25T05:38:29;23.67;;;3.97;;
49384;SDS011;36795;45.028;38.968;2022-08-25T05:41:17;16.95;;;3.50;;
49384;SDS011;36795;45.028;38.968;2022-08-25T05:44:06;21.33;;;3.90;;
49384;SDS011;36795;45.028;38.968;2022-08-25T05:46:52;21.83;;;3.78;;
49384;SDS011;36795;45.028;38.968;2022-08-25T05:49:38;27.40;;;4.68;;
49384;SDS011;36795;45.028;38.968;2022-08-25T05:52:25;26.27;;;5.12;;
49384;SDS011;36795;45.028;38.968;2022-08-25T05:55:12;21.42;;;3.42;;
49384;SDS011;36795;45.028;38.968;2022-08-25T05:57:59;16.42;;;3.40;;
49384;SDS011;36795;45.028;38.968;2022-08-25T06:00:45;24.15;;;6.05;;
49384;SDS011;36795;45.028;38.968;2022-08-25T06:03:32;21.15;;;4.25;;
49384;SDS011;36795;45.028;38.968;2022-08-25T06:06:18;23.42;;;3.28;;
49384;SDS011;36795;45.028;38.968;2022-08-25T06:09:06;22.52;;;4.25;;
49384;SDS011;36795;45.028;38.968;2022-08-25T06:11:53;26.35;;;3.75;;
49384;SDS011;36795;45.028;38.968;2022-08-25T06:14:39;28.45;;;4.87;;
49384;SDS011;36795;45.028;38.968;2022-08-25T06:17:26;19.80;;;3.75;;
49384;SDS011;36795;45.028;38.968;2022-08-25T06:20:16;23.95;;;4.05;;
49384;SDS011;36795;45.028;38.968;2022-08-25T06:25:53;25.25;;;3.87;;
49384;SDS011;36795;45.028;38.968;2022-08-25T06:28:40;21.17;;;3.80;;
49384;SDS011;36795;45.028;38.968;2022-08-25T06:31:27;21.98;;;4.10;;
49384;SDS011;36795;45.028;38.968;2022-08-25T06:34:13;23.42;;;3.92;;
49384;SDS011;36795;45.028;38.968;2022-08-25T06:36:59;25.30;;;4.53;;
49384;SDS011;36795;45.028;38.968;2022-08-25T06:39:45;24.98;;;4.40;;
49384;SDS011;36795;45.028;38.968;2022-08-25T06:42:32;23.10;;;4.90;;
49384;SDS011;36795;45.028;38.968;2022-08-25T06:45:18;23.73;;;4.53;;
49384;SDS011;36795;45.028;38.968;2022-08-25T06:48:05;19.73;;;3.45;;
49384;SDS011;36795;45.028;38.968;2022-08-25T06:50:51;23.77;;;4.18;;
49384;SDS011;36795;45.028;38.968;2022-08-25T06:53:37;24.83;;;4.00;;
49384;SDS011;36795;45.028;38.968;2022-08-25T06:56:23;22.73;;;3.40;;
49384;SDS011;36795;45.028;38.968;2022-08-25T06:59:10;17.98;;;3.08;;
49384;SDS011;36795;45.028;38.968;2022-08-25T07:01:56;21.10;;;3.90;;
49384;SDS011;36795;45.028;38.968;2022-08-25T07:04:44;24.48;;;4.18;;
49384;SDS011;36795;45.028;38.968;2022-08-25T07:07:29;18.48;;;3.55;;
49384;SDS011;36795;45.028;38.968;2022-08-25T07:10:16;25.73;;;3.92;;
49384;SDS011;36795;45.028;38.968;2022-08-25T07:13:03;20.62;;;3.95;;
49384;SDS011;36795;45.028;38.968;2022-08-25T07:15:52;25.35;;;4.37;;
49384;SDS011;36795;45.028;38.968;2022-08-25T07:18:39;19.87;;;4.20;;
49384;SDS011;36795;45.028;38.968;2022-08-25T07:21:27;22.70;;;4.03;;
49384;SDS011;36795;45.028;38.968;2022-08-25T07:24:15;22.10;;;3.58;;
49384;SDS011;36795;45.028;38.968;2022-08-25T07:27:02;23.87;;;3.85;;
49384;SDS011;36795;45.028;38.968;2022-08-25T07:29:48;21.73;;;5.15;;
49384;SDS011;36795;45.028;38.968;2022-08-25T07:32:34;24.17;;;4.30;;
49384;SDS011;36795;45.028;38.968;2022-08-25T07:35:20;25.25;;;4.82;;
49384;SDS011;36795;45.028;38.968;2022-08-25T07:38:09;24.33;;;3.58;;
49384;SDS011;36795;45.028;38.968;2022-08-25T07:41:02;25.52;;;4.00;;
49384;SDS011;36795;45.028;38.968;2022-08-25T07:43:49;25.65;;;3.90;;
49384;SDS011;36795;45.028;38.968;2022-08-25T07:46:52;27.92;;;4.53;;
49384;SDS011;36795;45.028;38.968;2022-08-25T07:50:09;23.98;;;3.92;;
49384;SDS011;36795;45.028;38.968;2022-08-25T07:53:05;25.37;;;4.18;;
49384;SDS011;36795;45.028;38.968;2022-08-25T07:56:27;22.80;;;3.90;;
49384;SDS011;36795;45.028;38.968;2022-08-25T07:59:19;19.30;;;4.43;;
49384;SDS011;36795;45.028;38.968;2022-08-25T08:02:14;25.50;;;6.00;;
49384;SDS011;36795;45.028;38.968;2022-08-25T08:05:09;24.25;;;3.45;;
49384;SDS011;36795;45.028;38.968;2022-08-25T08:08:59;24.48;;;4.07;;
49384;SDS011;36795;45.028;38.968;2022-08-25T08:11:45;23.15;;;3.80;;
49384;SDS011;36795;45.028;38.968;2022-08-25T08:14:34;27.73;;;4.32;;
49384;SDS011;36795;45.028;38.968;2022-08-25T08:17:32;20.85;;;3.97;;
49384;SDS011;36795;45.028;38.968;2022-08-25T08:23:31;23.92;;;3.95;;
49384;SDS011;36795;45.028;38.968;2022-08-25T08:26:30;20.62;;;3.55;;
49384;SDS011;36795;45.028;38.968;2022-08-25T08:29:24;27.67;;;4.18;;
49384;SDS011;36795;45.028;38.968;2022-08-25T08:32:20;26.47;;;4.37;;
49384;SDS011;36795;45.028;38.968;2022-08-25T08:35:23;24.08;;;4.35;;
49384;SDS011;36795;45.028;38.968;2022-08-25T08:39:09;25.50;;;4.22;;
49384;SDS011;36795;45.028;38.968;2022-08-25T08:48:26;26.40;;;4.95;;
49384;SDS011;36795;45.028;38.968;2022-08-25T08:51:25;23.73;;;4.18;;
49384;SDS011;36795;45.028;38.968;2022-08-25T08:54:57;23.12;;;3.58;;
49384;SDS011;36795;45.028;38.968;2022-08-25T08:57:56;23.55;;;4.07;;
49384;SDS011;36795;45.028;38.968;2022-08-25T09:00:51;23.62;;;3.70;;
49384;SDS011;36795;45.028;38.968;2022-08-25T09:03:42;21.58;;;3.87;;
49384;SDS011;36795;45.028;38.968;2022-08-25T09:06:38;21.23;;;3.97;;
49384;SDS011;36795;45.028;38.968;2022-08-25T09:09:29;24.12;;;4.12;;
49384;SDS011;36795;45.028;38.968;2022-08-25T09:18:55;25.55;;;5.03;;
49384;SDS011;36795;45.028;38.968;2022-08-25T09:25:38;25.30;;;4.93;;
49384;SDS011;36795;45.028;38.968;2022-08-25T09:28:40;23.20;;;3.75;;
49384;SDS011;36795;45.028;38.968;2022-08-25T09:31:32;22.25;;;4.20;;
49384;SDS011;36795;45.028;38.968;2022-08-25T09:34:21;31.23;;;4.78;;
49384;SDS011;36795;45.028;38.968;2022-08-25T09:37:12;31.40;;;4.80;;
49384;SDS011;36795;45.028;38.968;2022-08-25T09:39:58;25.70;;;4.85;;
49384;SDS011;36795;45.028;38.968;2022-08-25T09:42:46;30.42;;;4.45;;
49384;SDS011;36795;45.028;38.968;2022-08-25T09:45:42;26.33;;;4.30;;
49384;SDS011;36795;45.028;38.968;2022-08-25T09:48:32;25.33;;;4.62;;
49384;SDS011;36795;45.028;38.968;2022-08-25T09:51:31;25.37;;;4.18;;
49384;SDS011;36795;45.028;38.968;2022-08-25T09:54:19;26.17;;;4.45;;
49384;SDS011;36795;45.028;38.968;2022-08-25T09:57:08;27.62;;;5.18;;
49384;SDS011;36795;45.028;38.968;2022-08-25T10:06:04;20.50;;;3.80;;
49384;SDS011;36795;45.028;38.968;2022-08-25T10:09:04;28.33;;;4.45;;
49384;SDS011;36795;45.028;38.968;2022-08-25T10:11:52;23.62;;;4.37;;
49384;SDS011;36795;45.028;38.968;2022-08-25T10:14:40;54.67;;;7.68;;
49384;SDS011;36795;45.028;38.968;2022-08-25T10:17:27;26.00;;;4.37;;
49384;SDS011;36795;45.028;38.968;2022-08-25T10:20:18;27.60;;;3.95;;
49384;SDS011;36795;45.028;38.968;2022-08-25T10:23:12;28.17;;;4.95;;
49384;SDS011;36795;45.028;38.968;2022-08-25T10:26:00;25.08;;;4.20;;
49384;SDS011;36795;45.028;38.968;2022-08-25T10:31:56;27.95;;;6.35;;
49384;SDS011;36795;45.028;38.968;2022-08-25T10:34:50;27.45;;;5.82;;
49384;SDS011;36795;45.028;38.968;2022-08-25T10:40:45;27.45;;;5.10;;
49384;SDS011;36795;45.028;38.968;2022-08-25T10:46:42;27.13;;;3.95;;
49384;SDS011;36795;45.028;38.968;2022-08-25T10:49:44;34.03;;;7.70;;
49384;SDS011;36795;45.028;38.968;2022-08-25T10:52:48;27.60;;;4.65;;
49384;SDS011;36795;45.028;38.968;2022-08-25T10:55:43;26.25;;;5.10;;
49384;SDS011;36795;45.028;38.968;2022-08-25T11:02:16;32.88;;;8.65;;
49384;SDS011;36795;45.028;38.968;2022-08-25T11:08:45;32.20;;;8.32;;
49384;SDS011;36795;45.028;38.968;2022-08-25T11:11:43;30.05;;;4.80;;
49384;SDS011;36795;45.028;38.968;2022-08-25T11:14:58;23.75;;;4.00;;
49384;SDS011;36795;45.028;38.968;2022-08-25T11:18:01;37.40;;;5.10;;
49384;SDS011;36795;45.028;38.968;2022-08-25T11:24:40;26.85;;;4.25;;
49384;SDS011;36795;45.028;38.968;2022-08-25T11:27:59;29.95;;;5.80;;
49384;SDS011;36795;45.028;38.968;2022-08-25T11:30:52;27.95;;;5.40;;
49384;SDS011;36795;45.028;38.968;2022-08-25T11:33:43;31.02;;;5.55;;
49384;SDS011;36795;45.028;38.968;2022-08-25T11:36:31;26.95;;;5.97;;
49384;SDS011;36795;45.028;38.968;2022-08-25T11:42:48;29.33;;;7.53;;
49384;SDS011;36795;45.028;38.968;2022-08-25T11:45:49;31.52;;;7.68;;
49384;SDS011;36795;45.028;38.968;2022-08-25T11:48:56;32.25;;;7.97;;
49384;SDS011;36795;45.028;38.968;2022-08-25T11:51:52;24.20;;;3.83;;
49384;SDS011;36795;45.028;38.968;2022-08-25T11:54:42;28.33;;;5.10;;
49384;SDS011;36795;45.028;38.968;2022-08-25T11:57:28;28.85;;;5.32;;
49384;SDS011;36795;45.028;38.968;2022-08-25T12:00:34;34.97;;;6.68;;
49384;SDS011;36795;45.028;38.968;2022-08-25T12:06:27;31.25;;;8.00;;
49384;SDS011;36795;45.028;38.968;2022-08-25T12:09:18;26.87;;;7.95;;
49384;SDS011;36795;45.028;38.968;2022-08-25T12:18:12;25.67;;;6.10;;
49384;SDS011;36795;45.028;38.968;2022-08-25T12:26:49;36.65;;;6.78;;
49384;SDS011;36795;45.028;38.968;2022-08-25T12:29:56;35.00;;;7.82;;
49384;SDS011;36795;45.028;38.968;2022-08-25T12:32:59;29.75;;;5.45;;
49384;SDS011;36795;45.028;38.968;2022-08-25T12:36:04;34.28;;;5.93;;
49384;SDS011;36795;45.028;38.968;2022-08-25T12:39:07;28.58;;;5.62;;
49384;SDS011;36795;45.028;38.968;2022-08-25T12:42:02;29.90;;;5.18;;
49384;SDS011;36795;45.028;38.968;2022-08-25T12:51:19;27.00;;;4.20;;
49384;SDS011;36795;45.028;38.968;2022-08-25T12:54:24;28.00;;;5.43;;
49384;SDS011;36795;45.028;38.968;2022-08-25T13:00:28;32.33;;;5.50;;
49384;SDS011;36795;45.028;38.968;2022-08-25T13:03:35;35.67;;;6.78;;
49384;SDS011;36795;45.028;38.968;2022-08-25T13:06:41;28.40;;;4.20;;
49384;SDS011;36795;45.028;38.968;2022-08-25T13:13:04;47.05;;;6.43;;
49384;SDS011;36795;45.028;38.968;2022-08-25T13:16:00;35.05;;;5.75;;
49384;SDS011;36795;45.028;38.968;2022-08-25T13:18:51;38.08;;;5.28;;
49384;SDS011;36795;45.028;38.968;2022-08-25T13:21:38;30.98;;;5.43;;
49384;SDS011;36795;45.028;38.968;2022-08-25T13:24:31;36.38;;;6.45;;
49384;SDS011;36795;45.028;38.968;2022-08-25T13:27:21;32.45;;;6.43;;
49384;SDS011;36795;45.028;38.968;2022-08-25T13:30:18;31.30;;;6.50;;
49384;SDS011;36795;45.028;38.968;2022-08-25T13:33:18;32.05;;;6.00;;
49384;SDS011;36795;45.028;38.968;2022-08-25T13:36:06;40.50;;;5.28;;
49384;SDS011;36795;45.028;38.968;2022-08-25T13:39:27;42.67;;;6.37;;
49384;SDS011;36795;45.028;38.968;2022-08-25T13:42:14;40.33;;;5.78;;
49384;SDS011;36795;45.028;38.968;2022-08-25T13:45:05;49.38;;;6.45;;
49384;SDS011;36795;45.028;38.968;2022-08-25T13:47:53;34.70;;;6.32;;
49384;SDS011;36795;45.028;38.968;2022-08-25T13:50:40;40.78;;;6.37;;
49384;SDS011;36795;45.028;38.968;2022-08-25T13:53:27;42.50;;;6.60;;
49384;SDS011;36795;45.028;38.968;2022-08-25T13:56:21;41.33;;;6.87;;
49384;SDS011;36795;45.028;38.968;2022-08-25T13:59:25;46.08;;;6.57;;
49384;SDS011;36795;45.028;38.968;2022-08-25T14:08:38;54.75;;;7.10;;
49384;SDS011;36795;45.028;38.968;2022-08-25T14:11:31;43.67;;;7.43;;
49384;SDS011;36795;45.028;38.968;2022-08-25T14:14:31;47.53;;;7.43;;
49384;SDS011;36795;45.028;38.968;2022-08-25T14:17:19;42.05;;;6.78;;
49384;SDS011;36795;45.028;38.968;2022-08-25T14:20:13;48.63;;;8.43;;
49384;SDS011;36795;45.028;38.968;2022-08-25T14:23:13;49.05;;;7.55;;
49384;SDS011;36795;45.028;38.968;2022-08-25T14:26:02;49.42;;;8.63;;
49384;SDS011;36795;45.028;38.968;2022-08-25T14:28:49;53.53;;;8.55;;
49384;SDS011;36795;45.028;38.968;2022-08-25T14:31:36;55.10;;;8.23;;
49384;SDS011;36795;45.028;38.968;2022-08-25T14:34:34;51.17;;;8.98;;
49384;SDS011;36795;45.028;38.968;2022-08-25T14:37:21;57.58;;;8.77;;
49384;SDS011;36795;45.028;38.968;2022-08-25T14:40:08;47.72;;;8.50;;
49384;SDS011;36795;45.028;38.968;2022-08-25T14:42:58;57.00;;;8.75;;
49384;SDS011;36795;45.028;38.968;2022-08-25T14:45:45;50.10;;;8.68;;
49384;SDS011;36795;45.028;38.968;2022-08-25T14:48:34;60.03;;;9.10;;
49384;SDS011;36795;45.028;38.968;2022-08-25T14:51:28;58.90;;;8.48;;
49384;SDS011;36795;45.028;38.968;2022-08-25T14:54:18;52.05;;;8.30;;
49384;SDS011;36795;45.028;38.968;2022-08-25T14:57:08;50.53;;;12.98;;
49384;SDS011;36795;45.028;38.968;2022-08-25T14:59:53;51.10;;;7.53;;
49384;SDS011;36795;45.028;38.968;2022-08-25T15:02:41;52.88;;;9.68;;
49384;SDS011;36795;45.028;38.968;2022-08-25T15:05:27;50.10;;;7.05;;
49384;SDS011;36795;45.028;38.968;2022-08-25T15:08:14;49.97;;;11.95;;
49384;SDS011;36795;45.028;38.968;2022-08-25T15:11:18;47.65;;;9.13;;
49384;SDS011;36795;45.028;38.968;2022-08-25T15:14:04;40.08;;;7.22;;
49384;SDS011;36795;45.028;38.968;2022-08-25T15:16:51;44.28;;;7.80;;
49384;SDS011;36795;45.028;38.968;2022-08-25T15:19:40;63.70;;;8.98;;
49384;SDS011;36795;45.028;38.968;2022-08-25T15:22:25;54.08;;;7.35;;
49384;SDS011;36795;45.028;38.968;2022-08-25T15:25:12;55.95;;;19.02;;
49384;SDS011;36795;45.028;38.968;2022-08-25T15:27:58;50.22;;;7.75;;
49384;SDS011;36795;45.028;38.968;2022-08-25T15:30:48;53.67;;;7.55;;
49384;SDS011;36795;45.028;38.968;2022-08-25T15:33:34;49.20;;;8.02;;
49384;SDS011;36795;45.028;38.968;2022-08-25T15:36:21;55.22;;;8.70;;
49384;SDS011;36795;45.028;38.968;2022-08-25T15:39:09;46.03;;;7.03;;
49384;SDS011;36795;45.028;38.968;2022-08-25T15:41:56;53.87;;;7.45;;
49384;SDS011;36795;45.028;38.968;2022-08-25T15:44:42;47.10;;;8.07;;
49384;SDS011;36795;45.028;38.968;2022-08-25T15:47:29;63.60;;;9.30;;
49384;SDS011;36795;45.028;38.968;2022-08-25T15:50:17;57.67;;;8.63;;
49384;SDS011;36795;45.028;38.968;2022-08-25T15:53:05;59.47;;;9.30;;
49384;SDS011;36795;45.028;38.968;2022-08-25T15:55:51;58.67;;;9.38;;
49384;SDS011;36795;45.028;38.968;2022-08-25T15:58:38;60.88;;;9.75;;
49384;SDS011;36795;45.028;38.968;2022-08-25T16:01:25;62.22;;;8.82;;
49384;SDS011;36795;45.028;38.968;2022-08-25T16:04:13;54.92;;;8.55;;
49384;SDS011;36795;45.028;38.968;2022-08-25T16:07:00;59.22;;;8.73;;
49384;SDS011;36795;45.028;38.968;2022-08-25T16:09:46;69.03;;;8.32;;
49384;SDS011;36795;45.028;38.968;2022-08-25T16:12:32;62.28;;;10.00;;
49384;SDS011;36795;45.028;38.968;2022-08-25T16:15:20;65.93;;;10.48;;
49384;SDS011;36795;45.028;38.968;2022-08-25T16:18:06;55.88;;;9.32;;
49384;SDS011;36795;45.028;38.968;2022-08-25T16:20:52;63.40;;;10.32;;
49384;SDS011;36795;45.028;38.968;2022-08-25T16:23:38;66.50;;;9.63;;
49384;SDS011;36795;45.028;38.968;2022-08-25T16:26:25;57.38;;;9.43;;
49384;SDS011;36795;45.028;38.968;2022-08-25T16:29:11;66.07;;;10.50;;
49384;SDS011;36795;45.028;38.968;2022-08-25T16:31:59;65.35;;;9.77;;
49384;SDS011;36795;45.028;38.968;2022-08-25T16:34:45;71.35;;;10.38;;
49384;SDS011;36795;45.028;38.968;2022-08-25T16:37:32;78.57;;;11.43;;
49384;SDS011;36795;45.028;38.968;2022-08-25T16:40:19;58.63;;;10.43;;
49384;SDS011;36795;45.028;38.968;2022-08-25T16:43:09;84.30;;;11.40;;
49384;SDS011;36795;45.028;38.968;2022-08-25T16:46:03;70.53;;;11.73;;
49384;SDS011;36795;45.028;38.968;2022-08-25T16:48:51;74.50;;;9.57;;
49384;SDS011;36795;45.028;38.968;2022-08-25T16:51:37;74.78;;;10.55;;
49384;SDS011;36795;45.028;38.968;2022-08-25T16:54:25;81.40;;;9.50;;
49384;SDS011;36795;45.028;38.968;2022-08-25T16:57:29;71.18;;;11.02;;
49384;SDS011;36795;45.028;38.968;2022-08-25T17:00:16;74.47;;;10.88;;
49384;SDS011;36795;45.028;38.968;2022-08-25T17:03:05;60.90;;;10.07;;
49384;SDS011;36795;45.028;38.968;2022-08-25T17:05:51;83.57;;;24.70;;
49384;SDS011;36795;45.028;38.968;2022-08-25T17:08:37;68.43;;;11.07;;
49384;SDS011;36795;45.028;38.968;2022-08-25T17:11:26;76.78;;;10.38;;
49384;SDS011;36795;45.028;38.968;2022-08-25T17:14:16;74.37;;;13.57;;
49384;SDS011;36795;45.028;38.968;2022-08-25T17:17:03;86.10;;;12.60;;
49384;SDS011;36795;45.028;38.968;2022-08-25T17:19:49;86.70;;;10.63;;
49384;SDS011;36795;45.028;38.968;2022-08-25T17:22:36;75.12;;;11.25;;
49384;SDS011;36795;45.028;38.968;2022-08-25T17:25:22;78.37;;;11.70;;
49384;SDS011;36795;45.028;38.968;2022-08-25T17:28:08;83.10;;;12.52;;
49384;SDS011;36795;45.028;38.968;2022-08-25T17:30:55;79.85;;;12.98;;
49384;SDS011;36795;45.028;38.968;2022-08-25T17:33:41;89.37;;;12.15;;
49384;SDS011;36795;45.028;38.968;2022-08-25T17:36:28;75.37;;;9.77;;
49384;SDS011;36795;45.028;38.968;2022-08-25T17:39:15;95.38;;;12.35;;
49384;SDS011;36795;45.028;38.968;2022-08-25T17:42:02;85.38;;;12.15;;
49384;SDS011;36795;45.028;38.968;2022-08-25T17:44:50;79.05;;;12.23;;
49384;SDS011;36795;45.028;38.968;2022-08-25T17:47:36;76.32;;;11.60;;
49384;SDS011;36795;45.028;38.968;2022-08-25T17:50:22;68.28;;;11.07;;
49384;SDS011;36795;45.028;38.968;2022-08-25T17:53:09;86.22;;;11.73;;
49384;SDS011;36795;45.028;38.968;2022-08-25T17:56:05;93.25;;;11.43;;
49384;SDS011;36795;45.028;38.968;2022-08-25T17:58:53;78.30;;;11.60;;
49384;SDS011;36795;45.028;38.968;2022-08-25T18:01:40;79.57;;;12.27;;
49384;SDS011;36795;45.028;38.968;2022-08-25T18:04:27;75.30;;;11.80;;